sensor_id;sensor_type;location;lat;lon;timestamp;P1;durP1;ratioP1;P2;durP2;ratioP2
7501;SDS011;3792;47.740;7.606;2023-06-26T00:01:08;6.10;;;5.50;;
7501;SDS011;3792;47.740;7.606;2023-06-26T00:03:36;6.40;;;5.10;;
7501;SDS011;3792;47.740;7.606;2023-06-26T00:06:03;7.60;;;5.50;;
7501;SDS011;3792;47.740;7.606;2023-06-26T00:08:30;6.57;;;5.97;;
7501;SDS011;3792;47.740;7.606;2023-06-26T00:10:58;6.50;;;5.90;;
7501;SDS011;3792;47.740;7.606;2023-06-26T00:13:25;7.40;;;6.00;;
7501;SDS011;3792;47.740;7.606;2023-06-26T00:15:52;7.73;;;6.23;;
7501;SDS011;3792;47.740;7.606;2023-06-26T00:18:19;6.53;;;5.77;;
7501;SDS011;3792;47.740;7.606;2023-06-26T00:20:48;7.90;;;6.03;;
7501;SDS011;3792;47.740;7.606;2023-06-26T00:23:16;6.70;;;6.07;;
7501;SDS011;3792;47.740;7.606;2023-06-26T00:25:43;6.57;;;5.93;;
7501;SDS011;3792;47.740;7.606;2023-06-26T00:28:12;7.33;;;5.93;;
7501;SDS011;3792;47.740;7.606;2023-06-26T00:30:39;7.23;;;6.10;;
7501;SDS011;3792;47.740;7.606;2023-06-26T00:33:06;7.07;;;5.93;;
7501;SDS011;3792;47.740;7.606;2023-06-26T00:35:33;6.40;;;5.90;;
7501;SDS011;3792;47.740;7.606;2023-06-26T00:38:00;6.30;;;5.70;;
7501;SDS011;3792;47.740;7.606;2023-06-26T00:40:27;6.97;;;5.73;;
7501;SDS011;3792;47.740;7.606;2023-06-26T00:42:55;7.80;;;6.37;;
7501;SDS011;3792;47.740;7.606;2023-06-26T00:45:23;7.63;;;6.20;;
7501;SDS011;3792;47.740;7.606;2023-06-26T00:47:50;6.57;;;5.97;;
7501;SDS011;3792;47.740;7.606;2023-06-26T00:50:18;6.87;;;5.70;;
7501;SDS011;3792;47.740;7.606;2023-06-26T00:52:45;8.43;;;5.70;;
7501;SDS011;3792;47.740;7.606;2023-06-26T00:55:13;6.20;;;5.57;;
7501;SDS011;3792;47.740;7.606;2023-06-26T00:57:40;5.97;;;5.37;;
7501;SDS011;3792;47.740;7.606;2023-06-26T01:00:08;6.97;;;5.90;;
7501;SDS011;3792;47.740;7.606;2023-06-26T01:02:37;7.30;;;5.60;;
7501;SDS011;3792;47.740;7.606;2023-06-26T01:05:05;6.97;;;6.20;;
7501;SDS011;3792;47.740;7.606;2023-06-26T01:07:35;6.30;;;5.70;;
7501;SDS011;3792;47.740;7.606;2023-06-26T01:10:03;6.27;;;5.67;;
7501;SDS011;3792;47.740;7.606;2023-06-26T01:12:31;6.40;;;5.80;;
7501;SDS011;3792;47.740;7.606;2023-06-26T01:14:59;5.93;;;5.33;;
7501;SDS011;3792;47.740;7.606;2023-06-26T01:17:27;7.10;;;6.40;;
7501;SDS011;3792;47.740;7.606;2023-06-26T01:19:58;5.87;;;5.20;;
7501;SDS011;3792;47.740;7.606;2023-06-26T01:22:29;6.43;;;5.77;;
7501;SDS011;3792;47.740;7.606;2023-06-26T01:25:13;6.63;;;6.03;;
7501;SDS011;3792;47.740;7.606;2023-06-26T01:27:48;7.13;;;5.67;;
7501;SDS011;3792;47.740;7.606;2023-06-26T01:30:16;6.10;;;5.50;;
7501;SDS011;3792;47.740;7.606;2023-06-26T01:32:46;7.00;;;5.60;;
7501;SDS011;3792;47.740;7.606;2023-06-26T01:35:15;6.90;;;5.87;;
7501;SDS011;3792;47.740;7.606;2023-06-26T01:37:42;6.00;;;5.40;;
7501;SDS011;3792;47.740;7.606;2023-06-26T01:40:09;7.10;;;5.73;;
7501;SDS011;3792;47.740;7.606;2023-06-26T01:42:37;6.40;;;5.80;;
7501;SDS011;3792;47.740;7.606;2023-06-26T01:45:07;6.67;;;6.03;;
7501;SDS011;3792;47.740;7.606;2023-06-26T01:47:40;7.50;;;5.90;;
7501;SDS011;3792;47.740;7.606;2023-06-26T01:50:11;8.60;;;5.97;;
7501;SDS011;3792;47.740;7.606;2023-06-26T01:52:44;6.87;;;5.77;;
7501;SDS011;3792;47.740;7.606;2023-06-26T01:55:21;7.90;;;6.07;;
7501;SDS011;3792;47.740;7.606;2023-06-26T01:57:56;6.73;;;5.50;;
7501;SDS011;3792;47.740;7.606;2023-06-26T02:00:25;8.23;;;5.97;;
7501;SDS011;3792;47.740;7.606;2023-06-26T02:02:54;7.67;;;5.80;;
7501;SDS011;3792;47.740;7.606;2023-06-26T02:05:22;9.20;;;5.90;;
7501;SDS011;3792;47.740;7.606;2023-06-26T02:07:49;6.37;;;5.77;;
7501;SDS011;3792;47.740;7.606;2023-06-26T02:10:17;7.43;;;5.60;;
7501;SDS011;3792;47.740;7.606;2023-06-26T02:12:44;6.83;;;6.23;;
7501;SDS011;3792;47.740;7.606;2023-06-26T02:15:11;7.10;;;6.40;;
7501;SDS011;3792;47.740;7.606;2023-06-26T02:17:40;7.70;;;5.73;;
7501;SDS011;3792;47.740;7.606;2023-06-26T02:20:07;7.10;;;5.90;;
7501;SDS011;3792;47.740;7.606;2023-06-26T02:22:35;7.10;;;5.77;;
7501;SDS011;3792;47.740;7.606;2023-06-26T02:25:02;6.40;;;5.70;;
7501;SDS011;3792;47.740;7.606;2023-06-26T02:27:30;7.30;;;5.63;;
7501;SDS011;3792;47.740;7.606;2023-06-26T02:29:57;6.67;;;5.70;;
7501;SDS011;3792;47.740;7.606;2023-06-26T02:32:24;6.43;;;5.60;;
7501;SDS011;3792;47.740;7.606;2023-06-26T02:34:53;5.80;;;5.20;;
7501;SDS011;3792;47.740;7.606;2023-06-26T02:37:20;6.70;;;6.00;;
7501;SDS011;3792;47.740;7.606;2023-06-26T02:39:47;5.97;;;5.47;;
7501;SDS011;3792;47.740;7.606;2023-06-26T02:42:14;6.43;;;5.60;;
7501;SDS011;3792;47.740;7.606;2023-06-26T02:44:41;6.20;;;5.60;;
7501;SDS011;3792;47.740;7.606;2023-06-26T02:47:08;6.20;;;5.60;;
7501;SDS011;3792;47.740;7.606;2023-06-26T02:49:35;5.97;;;5.40;;
7501;SDS011;3792;47.740;7.606;2023-06-26T02:52:04;8.03;;;6.33;;
7501;SDS011;3792;47.740;7.606;2023-06-26T02:54:31;6.37;;;5.77;;
7501;SDS011;3792;47.740;7.606;2023-06-26T02:56:58;6.80;;;6.10;;
7501;SDS011;3792;47.740;7.606;2023-06-26T02:59:25;6.07;;;5.47;;
7501;SDS011;3792;47.740;7.606;2023-06-26T03:01:53;6.90;;;6.20;;
7501;SDS011;3792;47.740;7.606;2023-06-26T03:04:20;6.83;;;6.17;;
7501;SDS011;3792;47.740;7.606;2023-06-26T03:06:47;6.40;;;5.80;;
7501;SDS011;3792;47.740;7.606;2023-06-26T03:09:16;7.23;;;5.70;;
7501;SDS011;3792;47.740;7.606;2023-06-26T03:11:43;6.40;;;5.87;;
7501;SDS011;3792;47.740;7.606;2023-06-26T03:14:10;6.43;;;5.83;;
7501;SDS011;3792;47.740;7.606;2023-06-26T03:16:37;5.97;;;5.43;;
7501;SDS011;3792;47.740;7.606;2023-06-26T03:19:04;6.40;;;5.80;;
7501;SDS011;3792;47.740;7.606;2023-06-26T03:21:31;6.57;;;5.90;;
7501;SDS011;3792;47.740;7.606;2023-06-26T03:23:58;6.20;;;5.60;;
7501;SDS011;3792;47.740;7.606;2023-06-26T03:26:27;6.77;;;6.00;;
7501;SDS011;3792;47.740;7.606;2023-06-26T03:28:54;6.70;;;5.70;;
7501;SDS011;3792;47.740;7.606;2023-06-26T03:31:21;11.50;;;6.03;;
7501;SDS011;3792;47.740;7.606;2023-06-26T03:33:48;6.40;;;5.90;;
7501;SDS011;3792;47.740;7.606;2023-06-26T03:36:15;6.17;;;5.57;;
7501;SDS011;3792;47.740;7.606;2023-06-26T03:38:42;8.13;;;6.33;;
7501;SDS011;3792;47.740;7.606;2023-06-26T03:41:09;7.33;;;6.00;;
7501;SDS011;3792;47.740;7.606;2023-06-26T03:43:38;6.23;;;5.63;;
7501;SDS011;3792;47.740;7.606;2023-06-26T03:46:05;6.10;;;5.50;;
7501;SDS011;3792;47.740;7.606;2023-06-26T03:48:32;7.73;;;5.80;;
7501;SDS011;3792;47.740;7.606;2023-06-26T03:50:59;6.20;;;5.70;;
7501;SDS011;3792;47.740;7.606;2023-06-26T03:53:27;6.50;;;5.90;;
7501;SDS011;3792;47.740;7.606;2023-06-26T03:55:54;6.23;;;5.63;;
7501;SDS011;3792;47.740;7.606;2023-06-26T03:58:21;6.83;;;6.00;;
7501;SDS011;3792;47.740;7.606;2023-06-26T04:00:49;6.63;;;5.97;;
7501;SDS011;3792;47.740;7.606;2023-06-26T04:03:16;6.60;;;5.80;;
7501;SDS011;3792;47.740;7.606;2023-06-26T04:05:43;6.30;;;5.77;;
7501;SDS011;3792;47.740;7.606;2023-06-26T04:08:10;7.40;;;5.43;;
7501;SDS011;3792;47.740;7.606;2023-06-26T04:10:37;6.60;;;5.87;;
7501;SDS011;3792;47.740;7.606;2023-06-26T04:13:04;6.90;;;6.20;;
7501;SDS011;3792;47.740;7.606;2023-06-26T04:15:31;7.00;;;5.63;;
7501;SDS011;3792;47.740;7.606;2023-06-26T04:18:00;6.40;;;5.80;;
7501;SDS011;3792;47.740;7.606;2023-06-26T04:20:28;6.43;;;5.80;;
7501;SDS011;3792;47.740;7.606;2023-06-26T04:22:55;14.73;;;6.60;;
7501;SDS011;3792;47.740;7.606;2023-06-26T04:25:22;9.47;;;5.67;;
7501;SDS011;3792;47.740;7.606;2023-06-26T04:27:54;6.83;;;6.00;;
7501;SDS011;3792;47.740;7.606;2023-06-26T04:30:21;6.70;;;6.03;;
7501;SDS011;3792;47.740;7.606;2023-06-26T04:32:48;6.30;;;5.70;;
7501;SDS011;3792;47.740;7.606;2023-06-26T04:35:16;6.87;;;5.63;;
7501;SDS011;3792;47.740;7.606;2023-06-26T04:37:45;6.50;;;5.57;;
7501;SDS011;3792;47.740;7.606;2023-06-26T04:40:12;5.97;;;5.37;;
7501;SDS011;3792;47.740;7.606;2023-06-26T04:42:39;8.87;;;5.97;;
7501;SDS011;3792;47.740;7.606;2023-06-26T04:45:06;8.93;;;5.83;;
7501;SDS011;3792;47.740;7.606;2023-06-26T04:47:34;6.73;;;5.93;;
7501;SDS011;3792;47.740;7.606;2023-06-26T04:50:01;6.90;;;6.30;;
7501;SDS011;3792;47.740;7.606;2023-06-26T04:52:29;6.70;;;5.63;;
7501;SDS011;3792;47.740;7.606;2023-06-26T04:54:56;6.23;;;5.47;;
7501;SDS011;3792;47.740;7.606;2023-06-26T04:57:23;8.27;;;6.00;;
7501;SDS011;3792;47.740;7.606;2023-06-26T04:59:50;6.00;;;5.37;;
7501;SDS011;3792;47.740;7.606;2023-06-26T05:02:17;6.23;;;5.70;;
7501;SDS011;3792;47.740;7.606;2023-06-26T05:04:44;6.67;;;5.93;;
7501;SDS011;3792;47.740;7.606;2023-06-26T05:07:12;8.60;;;6.00;;
7501;SDS011;3792;47.740;7.606;2023-06-26T05:09:40;6.10;;;5.60;;
7501;SDS011;3792;47.740;7.606;2023-06-26T05:12:07;6.63;;;5.93;;
7501;SDS011;3792;47.740;7.606;2023-06-26T05:14:34;8.30;;;5.60;;
7501;SDS011;3792;47.740;7.606;2023-06-26T05:17:01;6.17;;;5.57;;
7501;SDS011;3792;47.740;7.606;2023-06-26T05:19:28;5.93;;;5.43;;
7501;SDS011;3792;47.740;7.606;2023-06-26T05:21:56;6.07;;;5.47;;
7501;SDS011;3792;47.740;7.606;2023-06-26T05:24:23;7.83;;;6.20;;
7501;SDS011;3792;47.740;7.606;2023-06-26T05:26:53;6.50;;;5.90;;
7501;SDS011;3792;47.740;7.606;2023-06-26T05:29:20;6.83;;;6.13;;
7501;SDS011;3792;47.740;7.606;2023-06-26T05:31:47;6.37;;;5.77;;
7501;SDS011;3792;47.740;7.606;2023-06-26T05:34:16;6.83;;;5.77;;
7501;SDS011;3792;47.740;7.606;2023-06-26T05:36:46;6.03;;;5.43;;
7501;SDS011;3792;47.740;7.606;2023-06-26T05:39:15;6.30;;;5.73;;
7501;SDS011;3792;47.740;7.606;2023-06-26T05:41:43;8.00;;;6.53;;
7501;SDS011;3792;47.740;7.606;2023-06-26T05:44:12;6.50;;;5.87;;
7501;SDS011;3792;47.740;7.606;2023-06-26T05:46:39;6.77;;;6.17;;
7501;SDS011;3792;47.740;7.606;2023-06-26T05:49:06;6.87;;;6.17;;
7501;SDS011;3792;47.740;7.606;2023-06-26T05:51:33;6.33;;;5.73;;
7501;SDS011;3792;47.740;7.606;2023-06-26T05:54:01;6.63;;;6.03;;
7501;SDS011;3792;47.740;7.606;2023-06-26T05:56:28;7.73;;;6.97;;
7501;SDS011;3792;47.740;7.606;2023-06-26T05:58:56;7.07;;;6.10;;
7501;SDS011;3792;47.740;7.606;2023-06-26T06:01:26;9.70;;;6.27;;
7501;SDS011;3792;47.740;7.606;2023-06-26T06:03:53;6.90;;;6.20;;
7501;SDS011;3792;47.740;7.606;2023-06-26T06:06:20;6.57;;;5.97;;
7501;SDS011;3792;47.740;7.606;2023-06-26T06:08:47;7.53;;;6.73;;
7501;SDS011;3792;47.740;7.606;2023-06-26T06:11:14;6.50;;;5.90;;
7501;SDS011;3792;47.740;7.606;2023-06-26T06:13:41;6.97;;;6.27;;
7501;SDS011;3792;47.740;7.606;2023-06-26T06:16:08;6.97;;;6.20;;
7501;SDS011;3792;47.740;7.606;2023-06-26T06:18:36;7.20;;;5.70;;
7501;SDS011;3792;47.740;7.606;2023-06-26T06:21:03;7.57;;;6.27;;
7501;SDS011;3792;47.740;7.606;2023-06-26T06:23:30;6.33;;;5.73;;
7501;SDS011;3792;47.740;7.606;2023-06-26T06:25:57;7.83;;;5.90;;
7501;SDS011;3792;47.740;7.606;2023-06-26T06:28:24;6.77;;;6.07;;
7501;SDS011;3792;47.740;7.606;2023-06-26T06:30:51;6.87;;;6.17;;
7501;SDS011;3792;47.740;7.606;2023-06-26T06:33:18;7.03;;;6.33;;
7501;SDS011;3792;47.740;7.606;2023-06-26T06:35:46;6.60;;;6.00;;
7501;SDS011;3792;47.740;7.606;2023-06-26T06:38:13;8.03;;;5.80;;
7501;SDS011;3792;47.740;7.606;2023-06-26T06:40:40;7.10;;;6.40;;
7501;SDS011;3792;47.740;7.606;2023-06-26T06:43:07;6.40;;;5.90;;
7501;SDS011;3792;47.740;7.606;2023-06-26T06:45:34;6.43;;;5.93;;
7501;SDS011;3792;47.740;7.606;2023-06-26T06:48:02;6.47;;;5.87;;
7501;SDS011;3792;47.740;7.606;2023-06-26T06:50:30;7.20;;;6.50;;
7501;SDS011;3792;47.740;7.606;2023-06-26T06:52:58;7.10;;;6.10;;
7501;SDS011;3792;47.740;7.606;2023-06-26T06:55:25;9.63;;;6.37;;
7501;SDS011;3792;47.740;7.606;2023-06-26T06:57:52;9.70;;;6.30;;
7501;SDS011;3792;47.740;7.606;2023-06-26T07:00:19;11.30;;;6.60;;
7501;SDS011;3792;47.740;7.606;2023-06-26T07:02:46;7.07;;;6.37;;
7501;SDS011;3792;47.740;7.606;2023-06-26T07:05:13;6.87;;;6.20;;
7501;SDS011;3792;47.740;7.606;2023-06-26T07:07:41;7.10;;;6.40;;
7501;SDS011;3792;47.740;7.606;2023-06-26T07:10:10;6.83;;;6.17;;
7501;SDS011;3792;47.740;7.606;2023-06-26T07:12:39;7.67;;;6.00;;
7501;SDS011;3792;47.740;7.606;2023-06-26T07:15:06;8.70;;;6.40;;
7501;SDS011;3792;47.740;7.606;2023-06-26T07:17:34;6.83;;;6.20;;
7501;SDS011;3792;47.740;7.606;2023-06-26T07:20:03;7.03;;;6.30;;
7501;SDS011;3792;47.740;7.606;2023-06-26T07:22:32;7.33;;;6.63;;
7501;SDS011;3792;47.740;7.606;2023-06-26T07:24:59;7.37;;;6.10;;
7501;SDS011;3792;47.740;7.606;2023-06-26T07:27:27;7.20;;;6.50;;
7501;SDS011;3792;47.740;7.606;2023-06-26T07:29:54;7.57;;;6.60;;
7501;SDS011;3792;47.740;7.606;2023-06-26T07:32:21;7.70;;;6.93;;
7501;SDS011;3792;47.740;7.606;2023-06-26T07:34:48;11.67;;;6.93;;
7501;SDS011;3792;47.740;7.606;2023-06-26T07:37:15;7.80;;;7.00;;
7501;SDS011;3792;47.740;7.606;2023-06-26T07:39:42;7.57;;;6.80;;
7501;SDS011;3792;47.740;7.606;2023-06-26T07:42:09;8.37;;;7.10;;
7501;SDS011;3792;47.740;7.606;2023-06-26T07:44:38;8.03;;;7.23;;
7501;SDS011;3792;47.740;7.606;2023-06-26T07:47:05;8.17;;;6.93;;
7501;SDS011;3792;47.740;7.606;2023-06-26T07:49:32;7.10;;;6.40;;
7501;SDS011;3792;47.740;7.606;2023-06-26T07:51:59;9.37;;;7.07;;
7501;SDS011;3792;47.740;7.606;2023-06-26T07:54:26;7.63;;;6.83;;
7501;SDS011;3792;47.740;7.606;2023-06-26T07:56:54;8.83;;;6.60;;
7501;SDS011;3792;47.740;7.606;2023-06-26T07:59:22;7.90;;;7.20;;
7501;SDS011;3792;47.740;7.606;2023-06-26T08:01:52;12.93;;;6.77;;
7501;SDS011;3792;47.740;7.606;2023-06-26T08:04:20;7.13;;;6.43;;
7501;SDS011;3792;47.740;7.606;2023-06-26T08:06:48;7.00;;;6.33;;
7501;SDS011;3792;47.740;7.606;2023-06-26T08:09:17;7.80;;;6.40;;
7501;SDS011;3792;47.740;7.606;2023-06-26T08:11:45;8.40;;;7.03;;
7501;SDS011;3792;47.740;7.606;2023-06-26T08:14:13;7.13;;;6.50;;
7501;SDS011;3792;47.740;7.606;2023-06-26T08:16:41;8.10;;;7.23;;
7501;SDS011;3792;47.740;7.606;2023-06-26T08:19:11;8.83;;;6.73;;
7501;SDS011;3792;47.740;7.606;2023-06-26T08:21:39;7.63;;;6.70;;
7501;SDS011;3792;47.740;7.606;2023-06-26T08:24:06;8.97;;;6.93;;
7501;SDS011;3792;47.740;7.606;2023-06-26T08:26:33;7.00;;;6.40;;
7501;SDS011;3792;47.740;7.606;2023-06-26T08:29:01;7.83;;;7.13;;
7501;SDS011;3792;47.740;7.606;2023-06-26T08:31:33;8.60;;;7.00;;
7501;SDS011;3792;47.740;7.606;2023-06-26T08:34:01;7.57;;;6.87;;
7501;SDS011;3792;47.740;7.606;2023-06-26T08:36:29;8.27;;;6.60;;
7501;SDS011;3792;47.740;7.606;2023-06-26T08:38:56;7.33;;;6.70;;
7501;SDS011;3792;47.740;7.606;2023-06-26T08:41:24;7.90;;;7.07;;
7501;SDS011;3792;47.740;7.606;2023-06-26T08:43:51;8.10;;;7.30;;
7501;SDS011;3792;47.740;7.606;2023-06-26T08:46:18;8.97;;;7.37;;
7501;SDS011;3792;47.740;7.606;2023-06-26T08:48:48;8.97;;;7.00;;
7501;SDS011;3792;47.740;7.606;2023-06-26T08:51:20;7.77;;;6.97;;
7501;SDS011;3792;47.740;7.606;2023-06-26T08:53:52;10.13;;;7.53;;
7501;SDS011;3792;47.740;7.606;2023-06-26T08:56:24;8.03;;;7.10;;
7501;SDS011;3792;47.740;7.606;2023-06-26T08:58:53;7.90;;;6.70;;
7501;SDS011;3792;47.740;7.606;2023-06-26T09:01:21;9.10;;;7.63;;
7501;SDS011;3792;47.740;7.606;2023-06-26T09:03:49;7.67;;;6.90;;
7501;SDS011;3792;47.740;7.606;2023-06-26T09:06:17;8.43;;;7.57;;
7501;SDS011;3792;47.740;7.606;2023-06-26T09:08:44;8.03;;;7.23;;
7501;SDS011;3792;47.740;7.606;2023-06-26T09:11:13;9.80;;;7.17;;
7501;SDS011;3792;47.740;7.606;2023-06-26T09:13:40;7.63;;;6.93;;
7501;SDS011;3792;47.740;7.606;2023-06-26T09:16:09;8.47;;;7.17;;
7501;SDS011;3792;47.740;7.606;2023-06-26T09:18:36;8.83;;;7.93;;
7501;SDS011;3792;47.740;7.606;2023-06-26T09:21:06;8.87;;;6.87;;
7501;SDS011;3792;47.740;7.606;2023-06-26T09:23:34;7.70;;;7.00;;
7501;SDS011;3792;47.740;7.606;2023-06-26T09:26:02;11.27;;;7.27;;
7501;SDS011;3792;47.740;7.606;2023-06-26T09:28:31;10.33;;;7.73;;
7501;SDS011;3792;47.740;7.606;2023-06-26T09:31:02;9.67;;;7.73;;
7501;SDS011;3792;47.740;7.606;2023-06-26T09:33:32;13.97;;;7.13;;
7501;SDS011;3792;47.740;7.606;2023-06-26T09:36:00;8.93;;;7.43;;
7501;SDS011;3792;47.740;7.606;2023-06-26T09:38:28;12.37;;;7.33;;
7501;SDS011;3792;47.740;7.606;2023-06-26T09:40:55;11.43;;;7.53;;
7501;SDS011;3792;47.740;7.606;2023-06-26T09:43:22;9.47;;;7.13;;
7501;SDS011;3792;47.740;7.606;2023-06-26T09:45:51;7.87;;;6.97;;
7501;SDS011;3792;47.740;7.606;2023-06-26T09:48:20;9.53;;;7.53;;
7501;SDS011;3792;47.740;7.606;2023-06-26T09:50:47;9.33;;;7.47;;
7501;SDS011;3792;47.740;7.606;2023-06-26T09:53:14;8.40;;;7.57;;
7501;SDS011;3792;47.740;7.606;2023-06-26T09:55:43;10.07;;;7.60;;
7501;SDS011;3792;47.740;7.606;2023-06-26T09:58:12;9.43;;;7.37;;
7501;SDS011;3792;47.740;7.606;2023-06-26T10:00:40;10.03;;;7.73;;
7501;SDS011;3792;47.740;7.606;2023-06-26T10:03:09;8.40;;;7.27;;
7501;SDS011;3792;47.740;7.606;2023-06-26T10:05:37;8.53;;;7.43;;
7501;SDS011;3792;47.740;7.606;2023-06-26T10:08:04;8.50;;;7.50;;
7501;SDS011;3792;47.740;7.606;2023-06-26T10:10:33;10.20;;;7.63;;
7501;SDS011;3792;47.740;7.606;2023-06-26T10:13:04;9.27;;;6.83;;
7501;SDS011;3792;47.740;7.606;2023-06-26T10:15:39;13.63;;;7.97;;
7501;SDS011;3792;47.740;7.606;2023-06-26T10:18:10;8.17;;;6.97;;
7501;SDS011;3792;47.740;7.606;2023-06-26T10:20:39;8.50;;;7.37;;
7501;SDS011;3792;47.740;7.606;2023-06-26T10:23:08;7.10;;;6.50;;
7501;SDS011;3792;47.740;7.606;2023-06-26T10:25:37;7.90;;;6.90;;
7501;SDS011;3792;47.740;7.606;2023-06-26T10:28:07;9.17;;;7.13;;
7501;SDS011;3792;47.740;7.606;2023-06-26T10:30:36;7.90;;;7.10;;
7501;SDS011;3792;47.740;7.606;2023-06-26T10:33:05;7.00;;;6.37;;
7501;SDS011;3792;47.740;7.606;2023-06-26T10:35:43;7.27;;;6.67;;
7501;SDS011;3792;47.740;7.606;2023-06-26T10:38:10;7.70;;;6.43;;
7501;SDS011;3792;47.740;7.606;2023-06-26T10:40:41;9.57;;;7.00;;
7501;SDS011;3792;47.740;7.606;2023-06-26T10:43:10;7.53;;;6.83;;
7501;SDS011;3792;47.740;7.606;2023-06-26T10:45:42;10.93;;;7.30;;
7501;SDS011;3792;47.740;7.606;2023-06-26T10:48:12;9.67;;;6.40;;
7501;SDS011;3792;47.740;7.606;2023-06-26T10:50:42;8.67;;;6.77;;
7501;SDS011;3792;47.740;7.606;2023-06-26T10:53:14;14.37;;;7.03;;
7501;SDS011;3792;47.740;7.606;2023-06-26T10:55:50;8.67;;;7.23;;
7501;SDS011;3792;47.740;7.606;2023-06-26T10:58:31;7.33;;;6.73;;
7501;SDS011;3792;47.740;7.606;2023-06-26T11:01:18;7.70;;;6.70;;
7501;SDS011;3792;47.740;7.606;2023-06-26T11:03:47;7.27;;;6.67;;
7501;SDS011;3792;47.740;7.606;2023-06-26T11:06:18;10.57;;;6.70;;
7501;SDS011;3792;47.740;7.606;2023-06-26T11:08:46;7.70;;;6.90;;
7501;SDS011;3792;47.740;7.606;2023-06-26T11:11:14;7.90;;;6.73;;
7501;SDS011;3792;47.740;7.606;2023-06-26T11:13:42;8.43;;;6.90;;
7501;SDS011;3792;47.740;7.606;2023-06-26T11:16:11;8.70;;;6.80;;
7501;SDS011;3792;47.740;7.606;2023-06-26T11:18:38;7.90;;;6.50;;
7501;SDS011;3792;47.740;7.606;2023-06-26T11:21:05;7.77;;;6.57;;
7501;SDS011;3792;47.740;7.606;2023-06-26T11:23:34;7.83;;;7.00;;
7501;SDS011;3792;47.740;7.606;2023-06-26T11:26:15;6.83;;;6.23;;
7501;SDS011;3792;47.740;7.606;2023-06-26T11:28:50;7.93;;;6.53;;
7501;SDS011;3792;47.740;7.606;2023-06-26T11:31:26;7.93;;;6.53;;
7501;SDS011;3792;47.740;7.606;2023-06-26T11:33:55;9.13;;;6.67;;
7501;SDS011;3792;47.740;7.606;2023-06-26T11:36:23;11.23;;;6.97;;
7501;SDS011;3792;47.740;7.606;2023-06-26T11:38:55;9.73;;;6.90;;
7501;SDS011;3792;47.740;7.606;2023-06-26T11:41:23;6.57;;;6.07;;
7501;SDS011;3792;47.740;7.606;2023-06-26T11:43:52;10.33;;;6.27;;
7501;SDS011;3792;47.740;7.606;2023-06-26T11:46:20;6.83;;;5.97;;
7501;SDS011;3792;47.740;7.606;2023-06-26T11:48:48;6.23;;;5.63;;
7501;SDS011;3792;47.740;7.606;2023-06-26T11:51:15;5.90;;;5.40;;
7501;SDS011;3792;47.740;7.606;2023-06-26T11:53:43;6.60;;;5.80;;
7501;SDS011;3792;47.740;7.606;2023-06-26T11:56:14;5.93;;;4.93;;
7501;SDS011;3792;47.740;7.606;2023-06-26T11:58:57;8.80;;;5.20;;
7501;SDS011;3792;47.740;7.606;2023-06-26T12:01:26;7.33;;;5.73;;
7501;SDS011;3792;47.740;7.606;2023-06-26T12:03:58;5.63;;;5.03;;
7501;SDS011;3792;47.740;7.606;2023-06-26T12:06:28;8.53;;;5.10;;
7501;SDS011;3792;47.740;7.606;2023-06-26T12:08:56;5.63;;;4.80;;
7501;SDS011;3792;47.740;7.606;2023-06-26T12:14:50;10.13;;;5.40;;
7501;SDS011;3792;47.740;7.606;2023-06-26T12:17:32;5.37;;;4.67;;
7501;SDS011;3792;47.740;7.606;2023-06-26T12:19:59;9.57;;;4.80;;
7501;SDS011;3792;47.740;7.606;2023-06-26T12:22:37;5.23;;;4.70;;
7501;SDS011;3792;47.740;7.606;2023-06-26T12:25:44;7.80;;;5.10;;
7501;SDS011;3792;47.740;7.606;2023-06-26T12:28:17;7.33;;;4.77;;
7501;SDS011;3792;47.740;7.606;2023-06-26T12:33:42;7.00;;;4.60;;
7501;SDS011;3792;47.740;7.606;2023-06-26T12:36:10;5.33;;;4.13;;
7501;SDS011;3792;47.740;7.606;2023-06-26T12:38:38;5.10;;;4.60;;
7501;SDS011;3792;47.740;7.606;2023-06-26T12:41:05;4.30;;;3.90;;
7501;SDS011;3792;47.740;7.606;2023-06-26T12:43:42;4.37;;;3.97;;
7501;SDS011;3792;47.740;7.606;2023-06-26T12:46:09;5.07;;;4.30;;
7501;SDS011;3792;47.740;7.606;2023-06-26T12:48:37;5.27;;;4.50;;
7501;SDS011;3792;47.740;7.606;2023-06-26T12:51:12;4.93;;;4.40;;
7501;SDS011;3792;47.740;7.606;2023-06-26T12:53:42;4.67;;;3.90;;
7501;SDS011;3792;47.740;7.606;2023-06-26T12:56:09;5.97;;;4.10;;
7501;SDS011;3792;47.740;7.606;2023-06-26T12:58:37;5.20;;;3.97;;
7501;SDS011;3792;47.740;7.606;2023-06-26T13:01:08;4.60;;;4.10;;
7501;SDS011;3792;47.740;7.606;2023-06-26T13:03:45;4.67;;;4.13;;
7501;SDS011;3792;47.740;7.606;2023-06-26T13:06:29;8.33;;;4.27;;
7501;SDS011;3792;47.740;7.606;2023-06-26T13:08:57;4.27;;;3.87;;
7501;SDS011;3792;47.740;7.606;2023-06-26T13:11:24;5.23;;;3.70;;
7501;SDS011;3792;47.740;7.606;2023-06-26T13:14:04;4.40;;;3.77;;
7501;SDS011;3792;47.740;7.606;2023-06-26T13:16:37;4.60;;;4.13;;
7501;SDS011;3792;47.740;7.606;2023-06-26T13:19:06;6.10;;;4.10;;
7501;SDS011;3792;47.740;7.606;2023-06-26T13:21:37;5.03;;;3.83;;
7501;SDS011;3792;47.740;7.606;2023-06-26T13:24:08;4.53;;;4.13;;
7501;SDS011;3792;47.740;7.606;2023-06-26T13:26:35;4.10;;;3.70;;
7501;SDS011;3792;47.740;7.606;2023-06-26T13:29:27;7.07;;;3.97;;
7501;SDS011;3792;47.740;7.606;2023-06-26T13:31:59;5.57;;;4.03;;
7501;SDS011;3792;47.740;7.606;2023-06-26T13:34:29;4.23;;;3.87;;
7501;SDS011;3792;47.740;7.606;2023-06-26T13:36:57;4.00;;;3.50;;
7501;SDS011;3792;47.740;7.606;2023-06-26T13:39:28;4.07;;;3.63;;
7501;SDS011;3792;47.740;7.606;2023-06-26T13:41:55;3.90;;;3.47;;
7501;SDS011;3792;47.740;7.606;2023-06-26T13:44:22;4.17;;;3.60;;
7501;SDS011;3792;47.740;7.606;2023-06-26T13:46:49;6.20;;;3.77;;
7501;SDS011;3792;47.740;7.606;2023-06-26T13:49:17;5.07;;;3.40;;
7501;SDS011;3792;47.740;7.606;2023-06-26T13:51:44;5.13;;;3.67;;
7501;SDS011;3792;47.740;7.606;2023-06-26T13:54:13;4.17;;;3.43;;
7501;SDS011;3792;47.740;7.606;2023-06-26T13:56:40;3.60;;;3.30;;
7501;SDS011;3792;47.740;7.606;2023-06-26T13:59:07;4.77;;;3.40;;
7501;SDS011;3792;47.740;7.606;2023-06-26T14:01:34;3.77;;;3.33;;
7501;SDS011;3792;47.740;7.606;2023-06-26T14:04:01;4.73;;;3.60;;
7501;SDS011;3792;47.740;7.606;2023-06-26T14:06:30;6.63;;;3.27;;
7501;SDS011;3792;47.740;7.606;2023-06-26T14:08:57;3.57;;;3.20;;
7501;SDS011;3792;47.740;7.606;2023-06-26T14:11:25;5.67;;;3.30;;
7501;SDS011;3792;47.740;7.606;2023-06-26T14:13:52;3.67;;;3.10;;
7501;SDS011;3792;47.740;7.606;2023-06-26T14:16:19;3.77;;;2.83;;
7501;SDS011;3792;47.740;7.606;2023-06-26T14:18:46;3.80;;;3.20;;
7501;SDS011;3792;47.740;7.606;2023-06-26T14:21:13;3.63;;;3.33;;
7501;SDS011;3792;47.740;7.606;2023-06-26T14:23:41;5.97;;;3.13;;
7501;SDS011;3792;47.740;7.606;2023-06-26T14:26:08;3.33;;;3.07;;
7501;SDS011;3792;47.740;7.606;2023-06-26T14:28:36;5.67;;;3.57;;
7501;SDS011;3792;47.740;7.606;2023-06-26T14:31:03;4.17;;;3.20;;
7501;SDS011;3792;47.740;7.606;2023-06-26T14:33:30;3.10;;;2.90;;
7501;SDS011;3792;47.740;7.606;2023-06-26T14:35:57;3.07;;;2.83;;
7501;SDS011;3792;47.740;7.606;2023-06-26T14:38:24;3.37;;;3.07;;
7501;SDS011;3792;47.740;7.606;2023-06-26T14:40:53;3.17;;;2.87;;
7501;SDS011;3792;47.740;7.606;2023-06-26T14:43:20;4.10;;;3.23;;
7501;SDS011;3792;47.740;7.606;2023-06-26T14:45:47;4.07;;;3.00;;
7501;SDS011;3792;47.740;7.606;2023-06-26T14:48:14;3.30;;;3.00;;
7501;SDS011;3792;47.740;7.606;2023-06-26T14:50:45;4.17;;;3.30;;
7501;SDS011;3792;47.740;7.606;2023-06-26T14:53:13;3.33;;;3.00;;
7501;SDS011;3792;47.740;7.606;2023-06-26T14:55:41;4.07;;;3.30;;
7501;SDS011;3792;47.740;7.606;2023-06-26T14:58:09;3.67;;;3.23;;
7501;SDS011;3792;47.740;7.606;2023-06-26T15:00:36;4.13;;;3.20;;
7501;SDS011;3792;47.740;7.606;2023-06-26T15:03:03;3.37;;;3.13;;
7501;SDS011;3792;47.740;7.606;2023-06-26T15:05:31;3.93;;;3.30;;
7501;SDS011;3792;47.740;7.606;2023-06-26T15:07:59;6.30;;;3.30;;
7501;SDS011;3792;47.740;7.606;2023-06-26T15:10:26;4.43;;;3.40;;
7501;SDS011;3792;47.740;7.606;2023-06-26T15:12:53;8.53;;;3.60;;
7501;SDS011;3792;47.740;7.606;2023-06-26T15:15:23;3.83;;;3.53;;
7501;SDS011;3792;47.740;7.606;2023-06-26T15:17:50;3.77;;;3.47;;
7501;SDS011;3792;47.740;7.606;2023-06-26T15:20:17;4.60;;;3.67;;
7501;SDS011;3792;47.740;7.606;2023-06-26T15:22:44;5.27;;;3.90;;
7501;SDS011;3792;47.740;7.606;2023-06-26T15:25:11;4.57;;;3.97;;
7501;SDS011;3792;47.740;7.606;2023-06-26T15:27:39;5.10;;;4.10;;
7501;SDS011;3792;47.740;7.606;2023-06-26T15:30:06;4.43;;;4.03;;